Time;durP1;ratioP1;P1;durP2;ratioP2;P2;SDS_P1;SDS_P2;PMS_P1;PMS_P2;Temp;Humidity;BMP_temperature;BMP_pressure;BME280_temperature;BME280_humidity;BME280_pressure;Samples;Min_cycle;Max_cycle;Signal;HPM_P1;HPM_P2
2021/12/21 21:05:35;;;;;;;;;45.25;37.00;;;;;15.51;47.75;99242.31;6014140;22;1522905;-58
2021/12/21 21:08:04;;;;;;;;;40.00;33.50;;;;;15.56;47.99;99236.22;6194876;22;102457;-57
2021/12/21 21:10:32;;;;;;;;;43.00;34.75;;;;;15.61;48.23;99234.50;6132218;22;102392;-59
2021/12/21 21:13:00;;;;;;;;;49.00;33.75;;;;;15.66;47.70;99228.41;5943958;22;103953;-59
2021/12/21 21:15:27;;;;;;;;;43.75;34.25;;;;;15.71;47.71;99230.47;6115455;22;102035;-58
2021/12/21 21:18:13;;;;;;;;;43.75;35.00;;;;;15.76;47.58;99230.66;6128957;22;102632;-59
2021/12/21 21:20:40;;;;;;;;;39.00;31.75;;;;;15.80;47.26;99227.28;6025385;22;102123;-58
2021/12/21 21:23:07;;;;;;;;;37.75;32.50;;;;;15.85;47.53;99224.69;6092447;22;103963;-59
2021/12/21 21:25:34;;;;;;;;;38.00;33.75;;;;;15.88;46.99;99232.47;6099698;22;103959;-59
2021/12/21 21:28:01;;;;;;;;;33.50;30.75;;;;;15.92;47.17;99228.22;6071465;22;102844;-59
2021/12/21 21:30:28;;;;;;;;;43.50;33.00;;;;;15.96;47.37;99224.00;6103211;22;102453;-59
2021/12/21 21:32:55;;;;;;;;;38.25;34.00;;;;;15.99;47.04;99220.81;6105263;22;103902;-59
2021/12/21 21:35:22;;;;;;;;;41.25;35.00;;;;;16.02;47.19;99228.59;6125871;22;102545;-58
2021/12/21 21:37:50;;;;;;;;;40.25;35.75;;;;;16.06;46.57;99232.53;6075354;22;102243;-60
2021/12/21 21:40:17;;;;;;;;;31.00;27.25;;;;;16.08;46.82;99219.50;6116786;22;102604;-60
2021/12/21 21:42:44;;;;;;;;;41.75;33.50;;;;;16.13;46.72;99226.19;6127362;22;103968;-60
2021/12/21 21:45:11;;;;;;;;;34.00;29.75;;;;;16.13;46.26;99227.03;6115647;22;102601;-60
2021/12/21 21:47:39;;;;;;;;;43.75;34.75;;;;;16.17;46.77;99227.41;6127644;22;102357;-59
2021/12/21 21:50:07;;;;;;;;;38.50;34.50;;;;;16.18;46.87;99240.84;6122654;22;102310;-58
2021/12/21 21:52:34;;;;;;;;;40.75;35.50;;;;;16.21;46.62;99239.59;6126824;22;104303;-58
2021/12/21 21:55:01;;;;;;;;;40.00;34.50;;;;;16.22;46.47;99246.69;6009396;22;102623;-59
2021/12/21 21:57:28;;;;;;;;;43.25;35.00;;;;;16.24;46.62;99244.59;6091398;22;102728;-58
2021/12/21 21:59:55;;;;;;;;;43.25;34.75;;;;;16.23;46.30;99240.19;6066454;22;102787;-58
2021/12/21 22:02:22;;;;;;;;;37.50;33.25;;;;;16.28;46.39;99246.66;6093119;22;104096;-58
2021/12/21 22:04:49;;;;;;;;;36.75;27.00;;;;;16.30;46.71;99249.16;6034247;22;102450;-59
2021/12/21 22:07:16;;;;;;;;;36.25;33.00;;;;;16.31;45.99;99248.91;6046538;22;102618;-59
2021/12/21 22:09:43;;;;;;;;;33.75;32.00;;;;;16.34;45.65;99259.41;6107414;22;102649;-58
2021/12/21 22:12:10;;;;;;;;;44.50;32.50;;;;;16.37;46.31;99255.41;6101412;22;103974;-59
2021/12/21 22:14:37;;;;;;;;;38.50;31.50;;;;;16.39;45.41;99265.00;6124656;22;102588;-59
2021/12/21 22:17:04;;;;;;;;;40.00;34.00;;;;;16.43;46.07;99265.44;6060873;22;102230;-59
2021/12/21 22:19:35;;;;;;;;;36.50;32.75;;;;;16.44;45.94;99275.28;6128507;22;102408;-59
2021/12/21 22:22:02;;;;;;;;;37.25;32.00;;;;;16.48;45.38;99265.56;6060609;22;108561;-59
2021/12/21 22:24:29;;;;;;;;;45.00;35.25;;;;;16.49;46.00;99273.56;6055188;22;102710;-59
2021/12/21 22:26:56;;;;;;;;;41.50;34.25;;;;;16.52;46.01;99275.03;6088167;22;102752;-59
2021/12/21 22:29:23;;;;;;;;;45.25;37.50;;;;;16.53;46.27;99265.75;6129656;22;102508;-59
2021/12/21 22:31:50;;;;;;;;;39.50;32.25;;;;;16.56;46.70;99270.78;6117160;22;103989;-59
2021/12/21 22:34:17;;;;;;;;;41.50;33.25;;;;;16.57;46.83;99266.16;6046326;22;104020;-59
2021/12/21 22:36:44;;;;;;;;;41.00;31.00;;;;;16.57;46.32;99264.25;6082269;22;102380;-59
2021/12/21 22:39:11;;;;;;;;;42.75;35.75;;;;;16.61;46.50;99267.41;6077944;22;102680;-59
2021/12/21 22:41:38;;;;;;;;;44.75;34.75;;;;;16.62;46.12;99269.91;6099544;22;104119;-59
2021/12/21 22:44:06;;;;;;;;;43.75;35.25;;;;;16.65;46.36;99260.44;6136258;22;102420;-59
2021/12/21 22:46:34;;;;;;;;;35.25;32.00;;;;;16.66;46.16;99257.47;6078289;22;104282;-59
2021/12/21 22:49:01;;;;;;;;;35.75;30.50;;;;;16.68;46.15;99241.72;6091757;22;102793;-59
2021/12/21 22:51:29;;;;;;;;;36.50;31.75;;;;;16.69;46.51;99248.84;6070789;22;103915;-59
2021/12/21 22:53:57;;;;;;;;;40.25;32.00;;;;;16.70;46.60;99239.59;6085647;22;102725;-59
2021/12/21 22:56:24;;;;;;;;;36.00;32.00;;;;;16.72;46.11;99248.38;6093237;22;102406;-60
2021/12/21 22:58:51;;;;;;;;;39.00;29.50;;;;;16.73;46.21;99241.88;6090557;22;102405;-59
2021/12/21 23:01:18;;;;;;;;;43.75;34.50;;;;;16.74;45.95;99240.81;6024880;22;104211;-59
2021/12/21 23:03:45;;;;;;;;;37.75;33.00;;;;;16.75;45.83;99247.94;6120458;22;102578;-59
2021/12/21 23:06:13;;;;;;;;;35.50;32.00;;;;;16.75;45.33;99247.94;6092072;22;102650;-58
2021/12/21 23:08:41;;;;;;;;;41.75;33.25;;;;;16.70;45.40;99238.75;6097849;22;102316;-59
2021/12/21 23:11:09;;;;;;;;;43.75;34.25;;;;;16.76;46.16;99243.31;6060956;22;109437;-58
2021/12/21 23:13:36;;;;;;;;;36.75;32.25;;;;;16.76;45.81;99244.16;6082666;22;102470;-59
2021/12/21 23:16:04;;;;;;;;;36.50;32.00;;;;;16.78;46.13;99254.84;6119823;22;103053;-58
2021/12/21 23:18:32;;;;;;;;;41.50;34.00;;;;;16.77;45.34;99254.00;6102446;22;102504;-59
2021/12/21 23:20:59;;;;;;;;;40.50;33.00;;;;;16.77;45.80;99262.22;6072372;22;104178;-58
2021/12/21 23:23:26;;;;;;;;;40.75;33.75;;;;;16.77;45.21;99255.91;6090382;22;103791;-59
2021/12/21 23:25:53;;;;;;;;;44.75;35.00;;;;;16.78;45.11;99252.97;6117133;22;102115;-59
2021/12/21 23:28:20;;;;;;;;;30.75;28.25;;;;;16.81;45.23;99257.97;6065849;22;102419;-60
2021/12/21 23:30:47;;;;;;;;;34.00;30.00;;;;;16.81;45.36;99255.22;6135310;22;103943;-59
2021/12/21 23:33:15;;;;;;;;;45.50;34.75;;;;;16.82;45.81;99253.34;6122499;22;102095;-57
2021/12/21 23:35:42;;;;;;;;;39.50;32.75;;;;;16.82;45.96;99256.91;6104194;22;102418;-58
2021/12/21 23:38:11;;;;;;;;;39.50;31.00;;;;;16.81;45.09;99254.41;6074235;22;102646;-58
2021/12/21 23:40:38;;;;;;;;;41.00;33.75;;;;;16.82;45.19;99256.91;6107666;22;103972;-58
2021/12/21 23:43:05;;;;;;;;;43.00;32.50;;;;;16.81;44.93;99268.88;6121310;22;102604;-58
2021/12/21 23:45:32;;;;;;;;;36.25;31.50;;;;;16.81;45.73;99257.97;6097615;22;102644;-59
2021/12/21 23:47:59;;;;;;;;;35.25;32.00;;;;;16.81;45.34;99263.44;6091430;22;103778;-59
2021/12/21 23:50:27;;;;;;;;;37.00;32.00;;;;;16.81;44.54;99270.78;6068392;22;103978;-59
2021/12/21 23:52:54;;;;;;;;;39.00;32.50;;;;;16.79;44.38;99273.75;6113904;22;102444;-58
2021/12/21 23:55:21;;;;;;;;;33.00;32.00;;;;;16.79;44.91;99264.72;6130376;22;102567;-58
2021/12/21 23:57:48;;;;;;;;;30.25;30.25;;;;;16.80;44.83;99267.22;6077662;22;102562;-58
